Time;durP1;ratioP1;P1;durP2;ratioP2;P2;SDS_P1;SDS_P2;PMS_P1;PMS_P2;Temp;Humidity;BMP_temperature;BMP_pressure;BME280_temperature;BME280_humidity;BME280_pressure;Samples;Min_cycle;Max_cycle;Signal;HPM_P1;HPM_P2
2022/11/17 00:02:18;;;;;;;;;;;20.00;44.90;;;;;;5055116;28;19925;-67
2022/11/17 00:04:45;;;;;;;;;;;20.10;44.90;;;;;;5055367;28;19934;-67
2022/11/17 00:07:14;;;;;;;;;;;20.10;45.00;;;;;;5088143;28;19948;-67
2022/11/17 00:09:41;;;;;;;;;;;20.10;45.00;;;;;;5076080;28;19928;-67
2022/11/17 00:14:52;;;;;;;;;;;20.00;44.90;;;;;;5079232;28;19932;-67
2022/11/17 00:17:20;;;;;;;;;;;20.10;44.90;;;;;;5068776;28;20019;-67
2022/11/17 00:22:34;;;;;;;;;;;20.10;44.90;;;;;;5084236;28;19925;-67
2022/11/17 00:25:01;;;;;;;;;;;20.10;45.00;;;;;;5070561;28;19924;-67
2022/11/17 00:27:27;;;;;;;;;;;20.00;44.80;;;;;;5096366;28;19925;-67
2022/11/17 00:29:55;;;;;;;;;;;20.10;44.90;;;;;;5073805;28;19970;-67
2022/11/17 00:35:11;;;;;;;;;;;20.10;44.90;;;;;;5076955;28;19960;-67
2022/11/17 00:38:14;;;;;;;;;;;20.00;44.90;;;;;;5063153;28;19931;-67
2022/11/17 00:40:25;;;;;;;;;;;20.10;44.90;;;;;;5074035;28;20088;-67
2022/11/17 00:42:52;;;;;;;;;;;20.00;44.80;;;;;;5079928;28;20428;-67
2022/11/17 00:45:21;;;;;;;;;;;20.00;44.80;;;;;;5090514;28;19924;-67
2022/11/17 00:47:51;;;;;;;;;;;20.00;44.80;;;;;;5087475;28;19928;-67
2022/11/17 00:50:18;;;;;;;;;;;20.10;44.90;;;;;;5084623;28;19928;-67
2022/11/17 00:52:45;;;;;;;;;;;20.10;44.90;;;;;;5093197;28;19932;-67
2022/11/17 00:55:12;;;;;;;;;;;20.00;44.80;;;;;;5064459;28;19977;-67
2022/11/17 00:57:39;;;;;;;;;;;20.00;44.80;;;;;;5102813;28;19933;-66
2022/11/17 01:00:06;;;;;;;;;;;20.00;44.90;;;;;;5072484;28;19924;-66
2022/11/17 01:02:33;;;;;;;;;;;20.10;44.90;;;;;;5079198;28;19928;-67
2022/11/17 01:05:01;;;;;;;;;;;20.00;44.80;;;;;;5067732;28;19981;-66
2022/11/17 01:07:27;;;;;;;;;;;20.00;44.80;;;;;;5107324;28;19924;-67
2022/11/17 01:09:56;;;;;;;;;;;20.00;44.80;;;;;;5077715;28;20321;-66
2022/11/17 01:12:23;;;;;;;;;;;20.00;44.80;;;;;;5099205;28;20275;-66
2022/11/17 01:14:49;;;;;;;;;;;20.00;44.80;;;;;;5073296;28;19928;-67
2022/11/17 01:17:16;;;;;;;;;;;20.00;44.80;;;;;;5073042;28;19925;-66
2022/11/17 01:19:43;;;;;;;;;;;20.10;44.80;;;;;;5074220;28;19929;-66
2022/11/17 01:22:11;;;;;;;;;;;20.00;44.80;;;;;;5060996;28;19936;-66
2022/11/17 01:24:38;;;;;;;;;;;20.00;44.80;;;;;;5068095;28;19924;-67
2022/11/17 01:27:07;;;;;;;;;;;20.00;44.80;;;;;;5089707;28;20520;-67
2022/11/17 01:29:33;;;;;;;;;;;20.00;44.80;;;;;;5079100;28;19928;-66
2022/11/17 01:32:00;;;;;;;;;;;20.00;44.80;;;;;;5079996;28;19978;-67
2022/11/17 01:34:30;;;;;;;;;;;20.00;44.70;;;;;;5073777;28;19924;-66
2022/11/17 01:39:43;;;;;;;;;;;20.00;44.70;;;;;;5081598;28;19928;-66
2022/11/17 01:42:11;;;;;;;;;;;20.00;44.70;;;;;;5081025;28;19945;-67
2022/11/17 01:44:51;;;;;;;;;;;20.00;44.70;;;;;;5089298;28;19978;-67
2022/11/17 01:47:19;;;;;;;;;;;20.00;44.70;;;;;;5089580;28;19928;-67
2022/11/17 01:49:46;;;;;;;;;;;20.00;44.70;;;;;;5072474;28;19924;-67
2022/11/17 01:52:16;;;;;;;;;;;20.00;44.70;;;;;;5061389;28;19929;-67
2022/11/17 01:54:44;;;;;;;;;;;20.00;44.70;;;;;;5069346;28;20298;-67
2022/11/17 01:57:11;;;;;;;;;;;20.00;44.70;;;;;;5074587;28;19925;-67
2022/11/17 01:59:38;;;;;;;;;;;20.00;44.70;;;;;;5071978;28;20383;-66
2022/11/17 02:02:05;;;;;;;;;;;20.00;44.70;;;;;;5075581;28;19974;-67
2022/11/17 02:04:34;;;;;;;;;;;20.00;44.70;;;;;;5063336;28;19991;-66
2022/11/17 02:07:02;;;;;;;;;;;20.00;44.70;;;;;;5072039;28;19951;-67
2022/11/17 02:09:29;;;;;;;;;;;20.00;44.70;;;;;;5072512;28;19933;-67
2022/11/17 02:12:04;;;;;;;;;;;20.00;44.60;;;;;;5075611;28;19939;-67
2022/11/17 02:14:31;;;;;;;;;;;20.00;45.20;;;;;;5078226;28;19946;-67
2022/11/17 02:16:58;;;;;;;;;;;20.00;44.60;;;;;;5072996;28;19939;-67
2022/11/17 02:19:26;;;;;;;;;;;20.00;44.60;;;;;;5068548;28;19924;-66
2022/11/17 02:22:07;;;;;;;;;;;20.00;44.60;;;;;;5061021;28;19948;-66
2022/11/17 02:24:55;;;;;;;;;;;20.00;44.60;;;;;;5076315;28;19924;-67
2022/11/17 02:27:34;;;;;;;;;;;20.00;44.60;;;;;;5080253;28;19931;-66
2022/11/17 02:30:03;;;;;;;;;;;20.00;44.60;;;;;;5077810;28;19959;-67
2022/11/17 02:32:30;;;;;;;;;;;20.00;44.60;;;;;;5056955;28;19932;-66
2022/11/17 02:34:59;;;;;;;;;;;20.00;44.60;;;;;;5068488;28;19929;-66
2022/11/17 02:37:27;;;;;;;;;;;20.00;44.60;;;;;;5078059;28;19924;-66
2022/11/17 02:39:55;;;;;;;;;;;20.00;44.50;;;;;;5080892;28;19928;-66
2022/11/17 02:44:02;;;;;;;;;;;20.00;44.60;;;;;;5083167;28;19924;-66
2022/11/17 02:45:12;;;;;;;;;;;20.00;44.50;;;;;;5108207;28;20099;-67
2022/11/17 02:47:39;;;;;;;;;;;20.00;44.50;;;;;;5101176;28;19932;-67
2022/11/17 02:50:06;;;;;;;;;;;20.00;44.50;;;;;;5066075;28;19954;-67
2022/11/17 02:52:33;;;;;;;;;;;20.00;44.50;;;;;;5070583;28;20432;-66
2022/11/17 02:54:59;;;;;;;;;;;20.00;44.50;;;;;;5049123;28;19932;-65
2022/11/17 02:57:27;;;;;;;;;;;20.00;44.50;;;;;;5087884;28;19931;-66
2022/11/17 02:59:54;;;;;;;;;;;20.00;44.50;;;;;;5070738;28;19928;-66
2022/11/17 03:02:31;;;;;;;;;;;20.00;44.50;;;;;;5069080;28;19978;-66
2022/11/17 03:05:02;;;;;;;;;;;20.00;44.50;;;;;;5083394;28;19928;-67
2022/11/17 03:07:36;;;;;;;;;;;20.00;44.50;;;;;;5065421;28;19924;-66
2022/11/17 03:10:03;;;;;;;;;;;20.00;44.50;;;;;;5077522;28;19932;-66
2022/11/17 03:12:31;;;;;;;;;;;20.00;44.40;;;;;;5071713;28;19924;-67
2022/11/17 03:14:59;;;;;;;;;;;20.00;44.40;;;;;;5087760;28;19924;-67
2022/11/17 03:17:27;;;;;;;;;;;20.00;44.40;;;;;;5086684;28;20025;-67
2022/11/17 03:19:57;;;;;;;;;;;20.00;44.40;;;;;;5076444;28;20042;-66
2022/11/17 03:22:24;;;;;;;;;;;20.00;44.40;;;;;;5091707;28;19928;-66
2022/11/17 03:24:52;;;;;;;;;;;20.00;44.40;;;;;;5093544;28;20371;-67
2022/11/17 03:27:20;;;;;;;;;;;20.00;44.40;;;;;;5067313;28;19925;-67
2022/11/17 03:29:50;;;;;;;;;;;20.00;44.40;;;;;;5052161;28;19933;-67
2022/11/17 03:32:16;;;;;;;;;;;20.00;44.40;;;;;;5070329;28;20006;-67
2022/11/17 03:34:44;;;;;;;;;;;20.00;44.30;;;;;;5070885;28;19924;-66
2022/11/17 03:37:12;;;;;;;;;;;20.00;44.40;;;;;;5073522;28;19924;-66
2022/11/17 03:39:40;;;;;;;;;;;19.90;44.20;;;;;;5078250;28;19931;-66
2022/11/17 03:42:08;;;;;;;;;;;20.00;44.30;;;;;;5072852;28;19924;-66
2022/11/17 03:44:36;;;;;;;;;;;20.00;44.30;;;;;;5050705;28;19929;-67
2022/11/17 03:47:03;;;;;;;;;;;19.90;44.20;;;;;;5067190;28;19929;-67
2022/11/17 03:49:33;;;;;;;;;;;20.00;44.30;;;;;;5061515;28;19924;-66
2022/11/17 03:52:00;;;;;;;;;;;20.00;44.30;;;;;;5070951;28;20029;-67
2022/11/17 03:54:28;;;;;;;;;;;19.90;44.20;;;;;;5084120;28;19933;-66
2022/11/17 03:56:55;;;;;;;;;;;19.90;44.20;;;;;;5066875;28;20440;-67
2022/11/17 03:59:23;;;;;;;;;;;19.90;44.20;;;;;;5075651;28;19932;-66
2022/11/17 04:01:53;;;;;;;;;;;20.00;44.20;;;;;;5069780;28;19932;-66
2022/11/17 04:04:20;;;;;;;;;;;19.90;44.10;;;;;;5068989;28;20007;-66
2022/11/17 04:06:47;;;;;;;;;;;19.90;44.10;;;;;;5087442;28;19928;-66
2022/11/17 04:09:14;;;;;;;;;;;19.90;44.00;;;;;;5067289;28;19932;-66
2022/11/17 04:17:10;;;;;;;;;;;19.90;44.00;;;;;;5067967;28;19928;-67
2022/11/17 04:19:37;;;;;;;;;;;19.90;44.00;;;;;;5071242;28;19925;-67
2022/11/17 04:22:04;;;;;;;;;;;19.90;44.00;;;;;;5071101;28;19925;-66
2022/11/17 04:24:30;;;;;;;;;;;19.90;44.00;;;;;;5074571;28;19928;-66
2022/11/17 04:29:45;;;;;;;;;;;19.90;43.90;;;;;;5092236;28;19929;-66
2022/11/17 04:32:12;;;;;;;;;;;19.90;43.90;;;;;;5090868;28;19928;-67
2022/11/17 04:34:41;;;;;;;;;;;19.90;43.90;;;;;;5080643;28;20049;-67
2022/11/17 04:37:16;;;;;;;;;;;19.90;43.90;;;;;;5090233;28;19935;-67
2022/11/17 04:39:43;;;;;;;;;;;19.90;43.90;;;;;;5100957;28;19932;-66
2022/11/17 04:42:10;;;;;;;;;;;19.90;43.90;;;;;;5070514;28;19928;-66
2022/11/17 04:44:37;;;;;;;;;;;19.90;43.80;;;;;;5053909;28;19925;-66
2022/11/17 04:47:04;;;;;;;;;;;19.90;43.80;;;;;;5070515;28;19934;-66
2022/11/17 04:49:31;;;;;;;;;;;19.90;43.80;;;;;;5065731;28;19973;-66
2022/11/17 04:52:04;;;;;;;;;;;19.90;43.80;;;;;;5081173;28;19932;-66
2022/11/17 04:54:32;;;;;;;;;;;19.90;43.80;;;;;;5093143;28;19936;-66
2022/11/17 04:56:59;;;;;;;;;;;19.90;43.80;;;;;;5090025;28;19932;-67
2022/11/17 04:59:27;;;;;;;;;;;19.90;43.80;;;;;;5080221;28;19931;-66
2022/11/17 05:01:53;;;;;;;;;;;19.90;43.80;;;;;;5081226;28;20379;-66
2022/11/17 05:07:01;;;;;;;;;;;19.90;43.70;;;;;;5052047;28;20379;-67
2022/11/17 05:09:28;;;;;;;;;;;19.90;43.70;;;;;;5080373;28;19932;-66
2022/11/17 05:14:42;;;;;;;;;;;19.90;43.70;;;;;;5086685;28;20363;-67
2022/11/17 05:17:08;;;;;;;;;;;19.90;43.70;;;;;;5069530;28;20338;-67
2022/11/17 05:19:35;;;;;;;;;;;19.90;43.70;;;;;;5085843;28;20535;-67
2022/11/17 05:22:02;;;;;;;;;;;19.90;43.70;;;;;;5074546;28;19978;-66
2022/11/17 05:24:28;;;;;;;;;;;19.90;43.70;;;;;;5089820;28;19924;-66
2022/11/17 05:26:55;;;;;;;;;;;19.90;43.60;;;;;;5089789;28;19939;-66
2022/11/17 05:29:22;;;;;;;;;;;19.90;43.60;;;;;;5069047;28;19951;-66
2022/11/17 05:31:50;;;;;;;;;;;19.90;43.60;;;;;;5071628;28;19931;-66
2022/11/17 05:34:17;;;;;;;;;;;19.90;43.60;;;;;;5071368;28;19924;-66
2022/11/17 05:36:44;;;;;;;;;;;19.90;43.60;;;;;;5088646;28;19982;-66
2022/11/17 05:39:10;;;;;;;;;;;19.90;43.60;;;;;;5078990;28;19929;-67
2022/11/17 05:41:37;;;;;;;;;;;19.90;43.60;;;;;;5083997;28;19925;-65
2022/11/17 05:44:04;;;;;;;;;;;19.90;43.50;;;;;;5089399;28;19932;-66
2022/11/17 05:46:31;;;;;;;;;;;19.90;43.60;;;;;;5089348;28;19931;-66
2022/11/17 05:48:59;;;;;;;;;;;19.90;43.50;;;;;;5060819;28;19932;-66
2022/11/17 05:51:26;;;;;;;;;;;19.90;43.50;;;;;;5071386;28;19924;-66
2022/11/17 05:53:52;;;;;;;;;;;19.90;43.60;;;;;;5071448;28;19931;-66
2022/11/17 05:56:27;;;;;;;;;;;19.90;43.60;;;;;;5078972;28;19925;-65
2022/11/17 05:58:54;;;;;;;;;;;19.90;43.50;;;;;;5075833;28;19936;-66
2022/11/17 06:01:21;;;;;;;;;;;19.90;43.50;;;;;;5071498;28;19931;-66
2022/11/17 06:03:49;;;;;;;;;;;19.90;43.50;;;;;;5070414;28;19960;-66
2022/11/17 06:06:17;;;;;;;;;;;19.90;43.50;;;;;;5071136;28;19978;-66
2022/11/17 06:08:44;;;;;;;;;;;19.90;43.50;;;;;;5072378;28;19928;-66
2022/11/17 06:11:11;;;;;;;;;;;19.90;43.50;;;;;;5084020;28;19986;-66
2022/11/17 06:13:38;;;;;;;;;;;19.90;43.50;;;;;;5071552;28;19920;-67
2022/11/17 06:16:05;;;;;;;;;;;19.90;43.50;;;;;;5071136;28;19924;-67
2022/11/17 06:18:33;;;;;;;;;;;19.90;43.50;;;;;;5071310;28;19928;-66
2022/11/17 06:21:00;;;;;;;;;;;19.90;43.50;;;;;;5069469;28;19931;-66
2022/11/17 06:23:28;;;;;;;;;;;19.90;43.50;;;;;;5084265;28;19932;-66
2022/11/17 06:25:55;;;;;;;;;;;19.90;43.50;;;;;;5069962;28;19950;-66
2022/11/17 06:28:22;;;;;;;;;;;19.90;43.50;;;;;;5083617;28;19924;-66
2022/11/17 06:30:49;;;;;;;;;;;19.90;43.50;;;;;;5069986;28;20378;-66
2022/11/17 06:33:16;;;;;;;;;;;19.90;43.50;;;;;;5069239;28;19951;-66
2022/11/17 06:35:43;;;;;;;;;;;19.90;43.50;;;;;;5069909;28;19943;-66
2022/11/17 06:38:09;;;;;;;;;;;19.90;43.50;;;;;;5071481;28;19924;-66
2022/11/17 06:40:38;;;;;;;;;;;19.90;43.40;;;;;;5087946;28;19925;-66
2022/11/17 06:43:08;;;;;;;;;;;19.90;43.40;;;;;;5071384;28;19928;-66
2022/11/17 06:45:35;;;;;;;;;;;19.90;43.40;;;;;;5068881;28;19932;-67
2022/11/17 06:48:02;;;;;;;;;;;19.90;43.50;;;;;;5067596;28;19935;-65
2022/11/17 06:50:28;;;;;;;;;;;19.90;43.50;;;;;;5071201;28;19924;-65
2022/11/17 06:52:58;;;;;;;;;;;19.90;43.50;;;;;;5079204;28;19928;-65
2022/11/17 06:55:25;;;;;;;;;;;19.90;43.40;;;;;;5087382;28;19947;-66
2022/11/17 06:57:54;;;;;;;;;;;19.90;43.40;;;;;;5069568;28;20393;-66
2022/11/17 07:00:21;;;;;;;;;;;19.90;43.30;;;;;;5064886;28;19946;-66
2022/11/17 07:02:48;;;;;;;;;;;19.90;43.30;;;;;;5086500;28;19925;-65
2022/11/17 07:05:15;;;;;;;;;;;19.90;43.30;;;;;;5070797;28;19974;-65
2022/11/17 07:07:41;;;;;;;;;;;19.90;43.30;;;;;;5075170;28;20386;-65
2022/11/17 07:10:08;;;;;;;;;;;19.90;43.30;;;;;;5091032;28;19924;-66
2022/11/17 07:12:35;;;;;;;;;;;19.90;43.30;;;;;;5070051;28;19924;-66
2022/11/17 07:15:04;;;;;;;;;;;19.90;43.30;;;;;;5069860;28;20382;-65
2022/11/17 07:17:31;;;;;;;;;;;19.90;43.20;;;;;;5069164;28;19935;-66
2022/11/17 07:19:58;;;;;;;;;;;19.90;43.30;;;;;;5070416;28;19924;-66
2022/11/17 07:22:27;;;;;;;;;;;19.90;43.30;;;;;;5087211;28;19932;-66
2022/11/17 07:24:54;;;;;;;;;;;19.90;43.20;;;;;;5082150;28;20295;-66
2022/11/17 07:27:21;;;;;;;;;;;19.90;43.20;;;;;;5070391;28;19932;-66
2022/11/17 07:29:47;;;;;;;;;;;19.90;43.20;;;;;;5077045;28;19924;-65
2022/11/17 07:32:16;;;;;;;;;;;19.90;43.20;;;;;;5086984;28;19928;-66
2022/11/17 07:34:42;;;;;;;;;;;19.90;43.20;;;;;;5087432;28;19946;-65
2022/11/17 07:37:09;;;;;;;;;;;19.90;43.20;;;;;;5083140;28;19928;-65
2022/11/17 07:39:36;;;;;;;;;;;19.90;43.20;;;;;;5088709;28;19978;-66
2022/11/17 07:42:03;;;;;;;;;;;19.90;43.20;;;;;;5068737;28;19989;-65
2022/11/17 07:44:30;;;;;;;;;;;19.90;43.20;;;;;;5087141;28;19974;-66
2022/11/17 07:46:57;;;;;;;;;;;19.80;43.10;;;;;;5067949;28;20045;-66
2022/11/17 07:49:25;;;;;;;;;;;19.90;43.10;;;;;;5084694;28;19979;-66
2022/11/17 07:51:52;;;;;;;;;;;19.90;43.10;;;;;;5071889;28;19925;-65
2022/11/17 07:54:19;;;;;;;;;;;19.90;43.10;;;;;;5070090;28;19933;-64
2022/11/17 07:56:46;;;;;;;;;;;19.80;43.00;;;;;;5069869;28;20475;-64
2022/11/17 07:59:12;;;;;;;;;;;19.80;43.00;;;;;;5066736;28;19932;-64
2022/11/17 08:01:40;;;;;;;;;;;19.80;43.00;;;;;;5079037;28;19925;-65
2022/11/17 08:04:07;;;;;;;;;;;19.90;43.10;;;;;;5072895;28;20010;-65
2022/11/17 08:06:35;;;;;;;;;;;19.80;43.00;;;;;;5054651;28;19936;-67
2022/11/17 08:09:02;;;;;;;;;;;19.90;43.20;;;;;;5074311;28;19924;-66
2022/11/17 08:11:29;;;;;;;;;;;19.90;43.20;;;;;;5071872;28;20293;-65
2022/11/17 08:13:56;;;;;;;;;;;19.80;43.10;;;;;;5088182;28;19925;-65
2022/11/17 08:16:24;;;;;;;;;;;19.90;43.20;;;;;;5057068;28;19928;-65
2022/11/17 08:18:51;;;;;;;;;;;19.90;43.20;;;;;;5080011;28;19928;-65
2022/11/17 08:21:17;;;;;;;;;;;19.90;43.20;;;;;;5081144;28;19969;-65
2022/11/17 08:23:49;;;;;;;;;;;19.90;43.20;;;;;;5084691;28;19924;-65
2022/11/17 08:26:16;;;;;;;;;;;19.90;43.20;;;;;;5092378;28;19931;-65
2022/11/17 08:28:42;;;;;;;;;;;19.90;43.20;;;;;;5084268;28;19992;-65
2022/11/17 08:31:09;;;;;;;;;;;19.90;43.20;;;;;;5068951;28;19931;-65
2022/11/17 08:33:36;;;;;;;;;;;19.90;43.80;;;;;;5092051;28;19924;-65
2022/11/17 08:36:03;;;;;;;;;;;19.90;43.20;;;;;;5079987;28;19927;-66
2022/11/17 08:38:30;;;;;;;;;;;19.90;43.20;;;;;;5089731;28;19931;-66
2022/11/17 08:40:58;;;;;;;;;;;19.90;43.20;;;;;;5088433;28;19936;-66
2022/11/17 08:43:25;;;;;;;;;;;19.90;43.20;;;;;;5068587;28;19925;-66
2022/11/17 08:45:52;;;;;;;;;;;19.90;43.20;;;;;;5075149;28;19927;-66
2022/11/17 08:48:18;;;;;;;;;;;19.90;43.20;;;;;;5073648;28;19924;-66
2022/11/17 08:50:45;;;;;;;;;;;19.90;43.20;;;;;;5072663;28;19978;-66
2022/11/17 08:53:13;;;;;;;;;;;19.90;43.20;;;;;;5068822;28;19921;-66
2022/11/17 08:55:40;;;;;;;;;;;19.90;43.20;;;;;;5092420;28;19928;-66
2022/11/17 08:58:08;;;;;;;;;;;19.90;43.20;;;;;;5071700;28;19935;-66
2022/11/17 09:00:35;;;;;;;;;;;19.90;43.20;;;;;;5077121;28;20019;-67
2022/11/17 09:03:04;;;;;;;;;;;19.90;43.20;;;;;;5078864;28;19974;-65
2022/11/17 09:05:31;;;;;;;;;;;19.90;43.20;;;;;;5070906;28;19925;-66
2022/11/17 09:07:58;;;;;;;;;;;19.90;43.20;;;;;;5069147;28;19948;-66
2022/11/17 09:10:25;;;;;;;;;;;19.90;43.20;;;;;;5074955;28;19928;-66
2022/11/17 09:12:54;;;;;;;;;;;19.90;43.20;;;;;;5069449;28;19925;-66
2022/11/17 09:15:23;;;;;;;;;;;19.90;43.20;;;;;;5088946;28;19925;-66
2022/11/17 09:17:50;;;;;;;;;;;19.90;43.20;;;;;;5079736;28;19924;-67
2022/11/17 09:20:17;;;;;;;;;;;19.90;43.20;;;;;;5069009;28;19929;-65
2022/11/17 09:22:44;;;;;;;;;;;19.90;43.20;;;;;;5069531;28;19996;-66
2022/11/17 09:25:11;;;;;;;;;;;19.90;43.20;;;;;;5065483;28;20065;-67
2022/11/17 09:27:37;;;;;;;;;;;19.90;43.20;;;;;;5077358;28;19929;-66
2022/11/17 09:30:05;;;;;;;;;;;19.90;43.20;;;;;;5067292;28;19924;-66
2022/11/17 09:32:34;;;;;;;;;;;19.90;43.20;;;;;;5073056;28;19963;-66
2022/11/17 09:35:02;;;;;;;;;;;19.90;43.20;;;;;;5089056;28;19935;-66
2022/11/17 09:37:29;;;;;;;;;;;19.90;43.20;;;;;;5091151;28;19924;-66
2022/11/17 09:39:56;;;;;;;;;;;19.90;43.20;;;;;;5076019;28;19921;-66
2022/11/17 09:42:23;;;;;;;;;;;19.90;43.20;;;;;;5071060;28;19932;-68
2022/11/17 09:44:51;;;;;;;;;;;19.90;43.20;;;;;;5080924;28;19978;-65
2022/11/17 09:47:20;;;;;;;;;;;19.90;43.20;;;;;;5068473;28;20022;-65
2022/11/17 09:49:53;;;;;;;;;;;19.90;43.20;;;;;;5069480;28;19931;-65
2022/11/17 09:52:20;;;;;;;;;;;19.90;43.10;;;;;;5087710;28;19928;-66
2022/11/17 09:54:49;;;;;;;;;;;19.90;43.10;;;;;;5081559;28;19928;-67
2022/11/17 09:57:19;;;;;;;;;;;19.90;43.10;;;;;;5068972;28;19928;-66
2022/11/17 09:59:46;;;;;;;;;;;19.90;43.10;;;;;;5068011;28;20265;-66
2022/11/17 10:02:13;;;;;;;;;;;19.90;43.10;;;;;;5087422;28;19932;-65
2022/11/17 10:04:40;;;;;;;;;;;19.90;43.10;;;;;;5071243;28;19928;-67
2022/11/17 10:07:09;;;;;;;;;;;19.90;43.10;;;;;;5070708;28;20385;-65
2022/11/17 10:09:36;;;;;;;;;;;19.90;43.10;;;;;;5086011;28;19981;-66
2022/11/17 10:12:07;;;;;;;;;;;19.90;43.10;;;;;;5066607;28;19977;-66
2022/11/17 10:14:34;;;;;;;;;;;19.90;43.10;;;;;;5087420;28;19924;-66
2022/11/17 10:17:01;;;;;;;;;;;19.90;43.10;;;;;;5083988;28;19939;-66
2022/11/17 10:19:28;;;;;;;;;;;19.90;43.10;;;;;;5069588;28;19925;-66
2022/11/17 10:21:56;;;;;;;;;;;19.90;43.10;;;;;;5086953;28;19985;-65
2022/11/17 10:24:34;;;;;;;;;;;19.90;43.10;;;;;;5070995;28;19950;-65
2022/11/17 10:27:01;;;;;;;;;;;19.90;43.10;;;;;;5065377;28;19932;-66
2022/11/17 10:29:28;;;;;;;;;;;19.90;43.10;;;;;;5081407;28;19924;-66
2022/11/17 10:31:58;;;;;;;;;;;19.90;43.10;;;;;;5082768;28;19924;-65
2022/11/17 10:34:32;;;;;;;;;;;19.90;43.10;;;;;;5080469;28;19956;-66
2022/11/17 10:37:01;;;;;;;;;;;19.90;43.20;;;;;;5082645;28;19931;-64
2022/11/17 10:39:32;;;;;;;;;;;19.90;43.10;;;;;;5072419;28;19925;-65
2022/11/17 10:42:00;;;;;;;;;;;19.90;43.10;;;;;;5069927;28;19928;-65
2022/11/17 10:44:30;;;;;;;;;;;19.90;43.10;;;;;;5087920;28;19973;-65
2022/11/17 10:46:57;;;;;;;;;;;19.90;43.10;;;;;;5087905;28;20010;-65
2022/11/17 10:49:24;;;;;;;;;;;19.90;43.10;;;;;;5079141;28;20268;-65
2022/11/17 10:51:58;;;;;;;;;;;19.90;43.10;;;;;;5070531;28;20005;-65
2022/11/17 10:54:25;;;;;;;;;;;19.90;43.10;;;;;;5066099;28;19931;-65
2022/11/17 10:56:52;;;;;;;;;;;19.90;43.10;;;;;;5092569;28;20375;-65
2022/11/17 10:59:21;;;;;;;;;;;19.90;43.10;;;;;;5069992;28;19920;-66
2022/11/17 11:01:50;;;;;;;;;;;19.90;43.10;;;;;;5089045;28;20057;-65
2022/11/17 11:04:27;;;;;;;;;;;19.90;43.10;;;;;;5072906;28;20368;-65
2022/11/17 11:07:09;;;;;;;;;;;19.90;43.10;;;;;;5081726;28;19925;-65
2022/11/17 11:09:37;;;;;;;;;;;19.90;43.10;;;;;;5086408;28;19936;-65
2022/11/17 11:12:04;;;;;;;;;;;19.90;43.10;;;;;;5072249;28;19924;-65
2022/11/17 11:14:33;;;;;;;;;;;19.90;43.80;;;;;;5079501;28;19932;-65
2022/11/17 11:17:00;;;;;;;;;;;19.90;43.20;;;;;;5097180;28;19929;-64
2022/11/17 11:19:28;;;;;;;;;;;19.90;43.20;;;;;;5065355;28;20276;-65
2022/11/17 11:22:16;;;;;;;;;;;19.90;43.20;;;;;;5089172;28;19924;-64
2022/11/17 11:24:48;;;;;;;;;;;19.90;43.20;;;;;;5070794;28;19931;-64
2022/11/17 11:27:41;;;;;;;;;;;19.90;43.20;;;;;;5086382;28;19930;-64
2022/11/17 11:30:10;;;;;;;;;;;19.90;43.20;;;;;;5068963;28;20363;-65
2022/11/17 11:32:41;;;;;;;;;;;19.90;43.20;;;;;;5074981;28;19928;-65
2022/11/17 11:35:30;;;;;;;;;;;19.90;43.20;;;;;;5101250;28;20028;-64
2022/11/17 11:38:00;;;;;;;;;;;19.90;43.20;;;;;;5091695;28;19924;-64
2022/11/17 11:40:27;;;;;;;;;;;19.90;43.20;;;;;;5082749;28;19947;-65
2022/11/17 11:42:56;;;;;;;;;;;19.90;43.20;;;;;;5101167;28;19947;-65
2022/11/17 11:45:28;;;;;;;;;;;19.90;43.20;;;;;;5090235;28;19928;-65
2022/11/17 11:48:02;;;;;;;;;;;19.90;43.20;;;;;;5091207;28;19932;-64
2022/11/17 11:50:30;;;;;;;;;;;19.90;43.20;;;;;;5075375;28;19925;-64
2022/11/17 11:52:59;;;;;;;;;;;19.90;43.20;;;;;;5081852;28;19925;-64
2022/11/17 11:55:29;;;;;;;;;;;19.90;43.20;;;;;;5063108;28;19971;-65
2022/11/17 11:57:57;;;;;;;;;;;19.90;43.20;;;;;;5087058;28;19932;-64
2022/11/17 12:00:26;;;;;;;;;;;19.90;43.30;;;;;;5089655;28;19973;-64
2022/11/17 12:03:05;;;;;;;;;;;19.90;43.30;;;;;;5083553;28;19932;-65
2022/11/17 12:05:32;;;;;;;;;;;19.90;43.30;;;;;;5085466;28;19931;-65
2022/11/17 12:08:02;;;;;;;;;;;19.90;43.30;;;;;;5103410;28;19944;-64
2022/11/17 12:10:31;;;;;;;;;;;19.90;43.30;;;;;;5078116;28;19931;-65
2022/11/17 12:12:58;;;;;;;;;;;19.90;43.30;;;;;;5064574;28;19929;-65
2022/11/17 12:15:36;;;;;;;;;;;19.90;43.30;;;;;;5069049;28;19929;-65
2022/11/17 12:18:04;;;;;;;;;;;19.90;43.30;;;;;;5058183;28;19929;-65
2022/11/17 12:20:52;;;;;;;;;;;19.90;43.40;;;;;;5073237;28;19924;-65
2022/11/17 12:23:20;;;;;;;;;;;19.90;43.40;;;;;;5061282;28;19932;-65
2022/11/17 12:25:47;;;;;;;;;;;19.90;43.40;;;;;;5061201;28;19928;-65
2022/11/17 12:28:28;;;;;;;;;;;19.90;43.40;;;;;;5068056;28;19928;-66
2022/11/17 12:30:57;;;;;;;;;;;19.90;43.40;;;;;;5085771;28;19928;-64
2022/11/17 12:33:24;;;;;;;;;;;19.90;43.40;;;;;;5072178;28;19928;-65
2022/11/17 12:36:14;;;;;;;;;;;19.90;43.40;;;;;;5065515;28;19928;-66
2022/11/17 12:38:41;;;;;;;;;;;19.90;43.40;;;;;;5069816;28;19931;-65
2022/11/17 12:41:08;;;;;;;;;;;19.90;43.40;;;;;;5062316;28;19994;-64
2022/11/17 12:43:35;;;;;;;;;;;20.00;43.50;;;;;;5083330;28;20213;-64
2022/11/17 12:46:17;;;;;;;;;;;19.90;43.50;;;;;;5059766;28;20487;-65
2022/11/17 12:48:46;;;;;;;;;;;19.90;43.50;;;;;;5073551;28;20020;-65
2022/11/17 12:51:15;;;;;;;;;;;19.90;43.50;;;;;;5058754;28;19932;-65
2022/11/17 12:53:51;;;;;;;;;;;20.00;43.60;;;;;;5060644;28;20031;-65
2022/11/17 12:56:33;;;;;;;;;;;19.90;43.50;;;;;;5067016;28;19925;-65
2022/11/17 12:59:04;;;;;;;;;;;20.00;43.60;;;;;;5067919;28;19933;-65
2022/11/17 13:01:35;;;;;;;;;;;20.00;43.60;;;;;;5065607;28;19924;-65
2022/11/17 13:04:04;;;;;;;;;;;19.90;43.60;;;;;;5086864;28;19930;-65
2022/11/17 13:06:31;;;;;;;;;;;20.00;43.60;;;;;;5091618;28;20009;-65
2022/11/17 13:08:58;;;;;;;;;;;20.00;43.60;;;;;;5093811;28;19928;-65
2022/11/17 13:11:24;;;;;;;;;;;20.00;43.70;;;;;;5067227;28;19933;-66
2022/11/17 13:14:06;;;;;;;;;;;20.00;43.70;;;;;;5073559;28;19924;-65
2022/11/17 13:16:32;;;;;;;;;;;20.00;43.70;;;;;;5075138;28;19956;-65
2022/11/17 13:19:01;;;;;;;;;;;20.00;43.70;;;;;;5062521;28;19986;-65
2022/11/17 13:21:28;;;;;;;;;;;20.00;43.70;;;;;;5069975;28;19935;-65
2022/11/17 13:23:55;;;;;;;;;;;20.00;43.70;;;;;;5071162;28;19986;-65
2022/11/17 13:26:22;;;;;;;;;;;20.00;43.70;;;;;;5074948;28;19924;-65
2022/11/17 13:29:01;;;;;;;;;;;20.00;43.70;;;;;;5068306;28;19929;-65
2022/11/17 13:31:28;;;;;;;;;;;20.00;43.80;;;;;;5091756;28;19932;-65
2022/11/17 13:33:55;;;;;;;;;;;20.00;43.70;;;;;;5065907;28;19936;-65
2022/11/17 13:36:26;;;;;;;;;;;20.00;43.70;;;;;;5072975;28;19924;-65
2022/11/17 13:38:56;;;;;;;;;;;20.00;43.80;;;;;;5082292;28;20015;-65
2022/11/17 13:41:23;;;;;;;;;;;20.00;43.80;;;;;;5089395;28;19924;-66
2022/11/17 13:43:50;;;;;;;;;;;20.00;43.80;;;;;;5072563;28;19925;-64
2022/11/17 13:46:17;;;;;;;;;;;20.00;43.80;;;;;;5077186;28;19928;-65
2022/11/17 13:48:44;;;;;;;;;;;20.00;43.80;;;;;;5079292;28;19928;-65
2022/11/17 13:51:33;;;;;;;;;;;20.00;43.80;;;;;;5065782;28;19935;-65
2022/11/17 13:54:01;;;;;;;;;;;20.00;43.80;;;;;;5074839;28;19974;-65
2022/11/17 13:56:32;;;;;;;;;;;20.00;43.80;;;;;;5077996;28;19936;-65
2022/11/17 13:58:59;;;;;;;;;;;20.00;43.80;;;;;;5088180;28;19936;-64
2022/11/17 14:01:27;;;;;;;;;;;20.00;43.80;;;;;;5082616;28;19924;-65
2022/11/17 14:04:07;;;;;;;;;;;20.00;43.80;;;;;;5088970;28;20086;-65
2022/11/17 14:06:49;;;;;;;;;;;20.00;43.80;;;;;;5066435;28;19924;-65
2022/11/17 14:09:17;;;;;;;;;;;20.00;43.80;;;;;;5065469;28;20232;-65
2022/11/17 14:11:44;;;;;;;;;;;20.00;43.80;;;;;;5067330;28;19978;-66
2022/11/17 14:14:11;;;;;;;;;;;20.00;43.80;;;;;;5071355;28;19929;-66
2022/11/17 14:16:38;;;;;;;;;;;20.00;43.80;;;;;;5069903;28;19929;-67
2022/11/17 14:19:05;;;;;;;;;;;20.00;43.90;;;;;;5071339;28;19931;-65
2022/11/17 14:21:32;;;;;;;;;;;20.00;43.90;;;;;;5093171;28;19924;-67
2022/11/17 14:24:04;;;;;;;;;;;20.00;43.90;;;;;;5069347;28;19924;-66
2022/11/17 14:26:32;;;;;;;;;;;20.00;43.90;;;;;;5067835;28;19956;-65
2022/11/17 14:29:01;;;;;;;;;;;20.00;43.90;;;;;;5069972;28;20367;-67
2022/11/17 14:31:28;;;;;;;;;;;20.00;43.90;;;;;;5069464;28;19925;-67
2022/11/17 14:33:55;;;;;;;;;;;20.00;43.90;;;;;;5065135;28;20280;-65
2022/11/17 14:36:22;;;;;;;;;;;20.00;43.90;;;;;;5059963;28;19931;-65
2022/11/17 14:38:48;;;;;;;;;;;20.00;43.90;;;;;;5066622;28;20272;-65
2022/11/17 14:41:16;;;;;;;;;;;20.00;43.90;;;;;;5072608;28;19932;-65
2022/11/17 14:43:46;;;;;;;;;;;20.00;43.90;;;;;;5069563;28;20417;-65
2022/11/17 14:46:17;;;;;;;;;;;20.00;43.90;;;;;;5081650;28;20390;-66
2022/11/17 14:48:44;;;;;;;;;;;20.00;43.90;;;;;;5085247;28;19933;-66
2022/11/17 14:51:10;;;;;;;;;;;20.00;44.00;;;;;;5087027;28;20001;-65